createdAt,value
2023-01-19T00:01:05.900Z,11.48
2023-01-19T00:06:07.947Z,11.60
2023-01-19T00:11:09.323Z,9.52
2023-01-19T00:16:11.240Z,14.45
2023-01-19T00:21:14.720Z,9.77
2023-01-19T00:26:16.553Z,12.02
2023-01-19T00:31:20.732Z,12.23
2023-01-19T00:36:22.227Z,10.25
2023-01-19T00:41:44.054Z,11.15
2023-01-19T00:46:45.453Z,12.07
2023-01-19T00:51:46.818Z,9.70
2023-01-19T00:56:48.334Z,14.68
2023-01-19T01:01:49.756Z,12.10
2023-01-19T01:06:51.204Z,12.68
2023-01-19T01:11:52.554Z,10.93
2023-01-19T01:16:54.994Z,11.98
2023-01-19T01:21:56.504Z,9.63
2023-01-19T01:26:57.927Z,11.75
2023-01-19T01:31:59.473Z,10.80
2023-01-19T01:37:00.882Z,9.95
2023-01-19T01:42:03.241Z,9.80
2023-01-19T01:47:04.745Z,11.32
2023-01-19T01:52:06.328Z,14.05
2023-01-19T01:57:12.289Z,9.43
2023-01-19T02:02:41.471Z,11.10
2023-01-19T02:08:24.696Z,11.55
2023-01-19T02:13:26.952Z,11.90
2023-01-19T02:18:30.567Z,12.18
2023-01-19T02:23:46.470Z,9.88
2023-01-19T02:29:02.883Z,11.80
2023-01-19T02:34:05.922Z,13.52
2023-01-19T02:39:09.672Z,14.40
2023-01-19T02:44:12.594Z,13.93
2023-01-19T02:49:14.154Z,12.63
2023-01-19T02:54:30.673Z,12.13
2023-01-19T02:59:43.967Z,13.40
2023-01-19T03:05:08.345Z,11.30
2023-01-19T03:10:33.122Z,13.13
2023-01-19T03:15:48.842Z,11.30
2023-01-19T03:20:55.141Z,15.13
2023-01-19T03:25:58.998Z,12.90
2023-01-19T03:31:10.932Z,13.60
2023-01-19T03:36:35.888Z,11.65
2023-01-19T03:41:40.855Z,14.90
2023-01-19T03:46:42.968Z,13.55
2023-01-19T03:51:44.633Z,12.85
2023-01-19T03:56:46.040Z,13.68
2023-01-19T04:01:48.207Z,12.32
2023-01-19T04:06:49.674Z,12.30
2023-01-19T04:11:51.451Z,12.38
2023-01-19T04:16:52.896Z,11.30
2023-01-19T04:21:56.785Z,11.50
2023-01-19T04:26:58.119Z,13.40
2023-01-19T04:31:59.445Z,11.52
2023-01-19T04:37:00.973Z,12.60
2023-01-19T04:42:02.355Z,14.95
2023-01-19T04:47:03.876Z,13.35
2023-01-19T04:52:06.142Z,13.65
2023-01-19T04:57:07.514Z,14.52
2023-01-19T05:02:08.957Z,14.32
2023-01-19T05:07:10.285Z,14.63
2023-01-19T05:12:12.236Z,16.05
2023-01-19T05:17:13.767Z,14.23
2023-01-19T05:22:15.591Z,12.43
2023-01-19T05:27:16.953Z,15.55
2023-01-19T05:32:18.519Z,13.68
2023-01-19T05:37:20.094Z,12.63
2023-01-19T05:42:21.607Z,13.43
2023-01-19T05:47:23.330Z,17.55
2023-01-19T05:52:27.579Z,16.83
2023-01-19T05:57:28.904Z,17.05
2023-01-19T06:02:30.301Z,18.08
2023-01-19T06:07:32.184Z,14.15
2023-01-19T06:12:33.773Z,16.88
2023-01-19T06:17:35.432Z,15.20
2023-01-19T06:22:36.795Z,12.25
2023-01-19T06:27:39.745Z,14.73
2023-01-19T06:32:41.188Z,16.70
2023-01-19T06:37:42.567Z,12.90
2023-01-19T06:42:43.958Z,12.23
2023-01-19T06:47:48.018Z,14.30
2023-01-19T06:52:51.223Z,11.85
2023-01-19T06:58:01.338Z,12.50
2023-01-19T07:03:03.426Z,16.83
2023-01-19T07:08:05.385Z,15.50
2023-01-19T07:13:09.445Z,12.90
2023-01-19T07:18:11.262Z,13.90
2023-01-19T07:23:12.721Z,12.88
2023-01-19T07:28:15.919Z,12.48
2023-01-19T07:33:17.315Z,13.00
2023-01-19T07:38:19.422Z,14.60
2023-01-19T07:43:20.945Z,15.57
2023-01-19T07:48:22.412Z,14.10
2023-01-19T07:53:23.850Z,12.80
2023-01-19T07:58:26.392Z,14.00
2023-01-19T08:03:27.735Z,15.20
2023-01-19T08:08:30.434Z,16.35
2023-01-19T08:13:31.932Z,13.15
2023-01-19T08:18:33.302Z,15.35
2023-01-19T08:23:34.910Z,13.20
2023-01-19T08:28:36.304Z,13.50
2023-01-19T08:33:37.659Z,14.95
2023-01-19T08:38:43.439Z,11.95
2023-01-19T08:43:45.520Z,13.43
2023-01-19T08:48:48.338Z,16.15
2023-01-19T08:53:50.212Z,14.65
2023-01-19T08:59:07.610Z,14.55
2023-01-19T09:04:09.878Z,12.88
2023-01-19T09:09:11.319Z,12.65
2023-01-19T09:14:12.966Z,12.20
2023-01-19T09:19:14.350Z,11.52
2023-01-19T09:24:15.714Z,13.45
2023-01-19T09:29:17.244Z,11.50
2023-01-19T09:34:18.588Z,11.98
2023-01-19T09:39:20.019Z,14.05
2023-01-19T09:44:33.833Z,12.73
2023-01-19T09:49:41.044Z,13.10
2023-01-19T09:54:52.984Z,11.77
2023-01-19T09:59:59.484Z,10.73
2023-01-19T10:05:14.524Z,11.18
2023-01-19T10:10:27.919Z,12.77
2023-01-19T10:15:41.985Z,11.05
2023-01-19T10:20:59.863Z,11.27
2023-01-19T10:26:08.390Z,12.52
2023-01-19T10:31:12.099Z,12.77
2023-01-19T10:36:24.273Z,11.52
2023-01-19T10:41:31.736Z,13.27
2023-01-19T10:46:42.223Z,14.52
2023-01-19T10:51:48.730Z,11.70
2023-01-19T10:57:03.466Z,13.25
2023-01-19T11:02:27.269Z,11.55
2023-01-19T11:07:31.078Z,14.35
2023-01-19T11:12:32.467Z,12.10
2023-01-19T11:17:33.957Z,14.70
2023-01-19T11:22:35.481Z,12.63
2023-01-19T11:27:37.774Z,10.20
2023-01-19T11:32:41.139Z,9.63
2023-01-19T11:37:43.168Z,7.65
2023-01-19T11:42:44.775Z,7.30
2023-01-19T11:47:50.250Z,8.27
2023-01-19T11:52:59.071Z,8.32
2023-01-19T11:58:02.496Z,6.55
2023-01-19T12:03:30.597Z,7.53
2023-01-19T12:08:39.531Z,9.02
2023-01-19T12:13:43.910Z,9.18
2023-01-19T12:18:51.666Z,8.10
2023-01-19T12:24:04.864Z,9.13
2023-01-19T12:29:15.279Z,10.88
2023-01-19T12:34:25.974Z,11.57
2023-01-19T12:39:27.481Z,13.50
2023-01-19T12:44:31.002Z,11.38
2023-01-19T12:49:35.491Z,10.18
2023-01-19T12:54:40.093Z,11.13
2023-01-19T12:59:41.435Z,8.25
2023-01-19T13:05:17.740Z,13.45
2023-01-19T13:11:10.689Z,7.15
2023-01-19T13:16:17.952Z,8.38
2023-01-19T13:21:44.630Z,8.00
2023-01-19T13:26:49.129Z,9.50
2023-01-19T13:31:53.551Z,6.63
2023-01-19T13:36:56.954Z,7.93
2023-01-19T13:42:02.691Z,12.75
2023-01-19T13:47:08.068Z,7.55
2023-01-19T13:52:24.288Z,7.82
2023-01-19T13:57:28.726Z,8.40
2023-01-19T14:02:30.259Z,10.15
2023-01-19T14:07:32.039Z,9.43
2023-01-19T14:12:33.362Z,7.63
2023-01-19T14:17:34.693Z,10.23
2023-01-19T14:22:41.576Z,8.75
2023-01-19T14:27:42.970Z,8.90
2023-01-19T14:32:47.736Z,8.00
2023-01-19T14:37:50.953Z,9.73
2023-01-19T14:42:55.304Z,9.73
2023-01-19T14:47:59.732Z,8.80
2023-01-19T14:53:04.362Z,9.57
2023-01-19T14:58:11.819Z,9.70
2023-01-19T15:03:13.285Z,8.00
2023-01-19T15:08:33.002Z,10.65
2023-01-19T15:13:34.473Z,10.20
2023-01-19T15:18:36.172Z,11.00
2023-01-19T15:23:37.492Z,10.02
2023-01-19T15:28:38.780Z,11.88
2023-01-19T15:33:40.656Z,11.48
2023-01-19T15:38:42.618Z,13.18
2023-01-19T15:43:44.051Z,10.40
2023-01-19T15:48:45.451Z,11.00
2023-01-19T15:53:47.699Z,10.20
2023-01-19T15:58:49.187Z,11.23
2023-01-19T16:03:52.063Z,14.48
2023-01-19T16:08:59.116Z,10.55
2023-01-19T16:14:01.256Z,10.43
2023-01-19T16:19:02.628Z,12.00
2023-01-19T16:24:04.156Z,10.80
2023-01-19T16:29:08.565Z,11.05
2023-01-19T16:34:10.171Z,9.90
2023-01-19T16:39:13.793Z,8.93
2023-01-19T16:44:16.342Z,15.00
2023-01-19T16:49:20.068Z,12.80
2023-01-19T16:54:25.849Z,9.35
2023-01-19T16:59:29.101Z,10.82
2023-01-19T17:04:30.806Z,14.73
2023-01-19T17:09:32.129Z,13.80
2023-01-19T17:14:33.493Z,12.02
2023-01-19T17:19:35.353Z,9.88
2023-01-19T17:24:36.735Z,11.70
2023-01-19T17:29:38.135Z,12.10
2023-01-19T17:34:39.445Z,11.43
2023-01-19T17:39:40.916Z,13.00
2023-01-19T17:44:42.371Z,14.30
2023-01-19T17:49:43.793Z,11.15
2023-01-19T17:54:45.185Z,13.60
2023-01-19T17:59:47.800Z,10.57
2023-01-19T18:04:49.265Z,11.73
2023-01-19T18:09:51.692Z,16.05
2023-01-19T18:14:52.998Z,12.95
2023-01-19T18:19:54.720Z,14.80
2023-01-19T18:24:56.156Z,13.38
2023-01-19T18:29:57.534Z,13.15
2023-01-19T18:34:58.955Z,15.02
2023-01-19T18:40:04.173Z,12.75
2023-01-19T18:50:07.828Z,14.35
2023-01-19T18:55:09.545Z,13.45
2023-01-19T19:00:11.813Z,14.25
2023-01-19T19:05:13.404Z,14.32
2023-01-19T19:10:14.998Z,18.42
2023-01-19T19:15:16.696Z,15.45
2023-01-19T19:20:19.419Z,14.10
2023-01-19T19:25:21.092Z,15.52
2023-01-19T19:30:22.553Z,16.40
2023-01-19T19:35:24.187Z,17.73
2023-01-19T19:40:26.870Z,15.05
2023-01-19T19:45:28.253Z,18.50
2023-01-19T19:50:29.570Z,17.20
2023-01-19T19:55:30.964Z,16.23
2023-01-19T20:00:32.363Z,15.60
2023-01-19T20:05:35.617Z,14.82
2023-01-19T20:10:37.789Z,17.27
2023-01-19T20:15:39.482Z,14.65
2023-01-19T20:20:41.051Z,15.88
2023-01-19T20:25:42.407Z,16.05
2023-01-19T20:30:43.816Z,16.60
2023-01-19T20:35:45.119Z,19.27
2023-01-19T20:40:46.445Z,19.00
2023-01-19T20:45:48.375Z,17.08
2023-01-19T20:50:49.953Z,20.10
2023-01-19T20:55:51.251Z,17.30
2023-01-19T21:00:52.741Z,16.65
2023-01-19T21:05:54.138Z,15.43
2023-01-19T21:10:56.805Z,18.05
2023-01-19T21:15:59.577Z,16.08
2023-01-19T21:21:01.003Z,15.05
2023-01-19T21:26:02.469Z,16.52
2023-01-19T21:31:12.873Z,19.55
2023-01-19T21:36:14.210Z,17.15
2023-01-19T21:41:16.263Z,19.67
2023-01-19T21:46:29.126Z,17.17
2023-01-19T21:51:34.696Z,16.35
2023-01-19T21:56:38.353Z,18.15
2023-01-19T22:01:39.831Z,16.88
2023-01-19T22:06:41.347Z,18.95
2023-01-19T22:11:42.811Z,16.08
2023-01-19T22:16:44.159Z,18.55
2023-01-19T22:21:45.524Z,19.65
2023-01-19T22:26:50.038Z,17.63
2023-01-19T22:31:52.384Z,18.10
2023-01-19T22:36:53.855Z,17.33
2023-01-19T22:41:55.745Z,17.67
2023-01-19T22:46:57.174Z,16.63
2023-01-19T22:51:58.559Z,19.80
2023-01-19T22:57:00.004Z,16.30
2023-01-19T23:02:01.564Z,17.70
2023-01-19T23:07:02.988Z,19.15
2023-01-19T23:12:04.629Z,15.38
2023-01-19T23:17:06.192Z,19.70
2023-01-19T23:22:07.643Z,16.02
2023-01-19T23:27:09.406Z,18.42
2023-01-19T23:32:10.740Z,17.00
2023-01-19T23:37:12.362Z,15.95
2023-01-19T23:42:13.733Z,16.98
2023-01-19T23:47:15.086Z,17.80
2023-01-19T23:52:16.418Z,15.90
2023-01-19T23:57:17.901Z,16.20
